Terminal Aerodrome Forecast
Issued by NWS Cleveland, OH

Home | Current Version | Previous Version | Graphics & Text | Print | Product List | Glossary Off
Versions: 1 2 3 4 5 6 7 8 9 10 11 12 13 14 15 16

000
FTUS41 KCLE 302300
TAFERI
TAF
KERI 302340Z 0100/0124 30003KT P6SM SCT015 BKN022
      TEMPO 0101/0105 SCT025 BKN035
     FM010600 10004KT 5SM BR BKN012
     FM011000 08004KT 2SM BR BKN005 OVC012
     FM011400 09007KT 6SM HZ BKN012
     FM011700 05007KT P6SM SCT020=

USA.gov is the U.S. government's official web portal to all federal, state and local government web resources and services.